sensor_id;sensor_type;location;lat;lon;timestamp;temperature;humidity
13472;DHT22;6808;49.444;11.034;2023-03-14T00:02:16;9.70;99.90
13472;DHT22;6808;49.444;11.034;2023-03-14T00:04:42;9.70;99.90
13472;DHT22;6808;49.444;11.034;2023-03-14T00:07:10;9.90;99.90
13472;DHT22;6808;49.444;11.034;2023-03-14T00:09:36;9.80;99.90
13472;DHT22;6808;49.444;11.034;2023-03-14T00:12:02;9.70;99.90
13472;DHT22;6808;49.444;11.034;2023-03-14T00:14:28;9.70;99.90
13472;DHT22;6808;49.444;11.034;2023-03-14T00:16:54;9.80;99.90
13472;DHT22;6808;49.444;11.034;2023-03-14T00:19:20;9.70;99.90
13472;DHT22;6808;49.444;11.034;2023-03-14T00:21:46;9.70;99.90
13472;DHT22;6808;49.444;11.034;2023-03-14T00:24:12;9.70;99.90
13472;DHT22;6808;49.444;11.034;2023-03-14T00:26:38;9.70;99.90
13472;DHT22;6808;49.444;11.034;2023-03-14T00:29:04;9.60;99.90
13472;DHT22;6808;49.444;11.034;2023-03-14T00:31:29;9.60;99.90
13472;DHT22;6808;49.444;11.034;2023-03-14T00:33:55;9.60;99.90
13472;DHT22;6808;49.444;11.034;2023-03-14T00:36:21;9.60;99.90
13472;DHT22;6808;49.444;11.034;2023-03-14T00:38:49;10.10;99.90
13472;DHT22;6808;49.444;11.034;2023-03-14T00:41:18;9.50;99.90
13472;DHT22;6808;49.444;11.034;2023-03-14T00:43:44;9.00;99.90
13472;DHT22;6808;49.444;11.034;2023-03-14T00:46:10;10.20;99.90
13472;DHT22;6808;49.444;11.034;2023-03-14T00:48:37;9.50;99.90
13472;DHT22;6808;49.444;11.034;2023-03-14T00:51:04;10.80;99.90
13472;DHT22;6808;49.444;11.034;2023-03-14T00:53:30;9.50;99.90
13472;DHT22;6808;49.444;11.034;2023-03-14T00:55:56;9.50;99.90
13472;DHT22;6808;49.444;11.034;2023-03-14T00:58:21;9.60;99.90
13472;DHT22;6808;49.444;11.034;2023-03-14T01:00:47;9.50;99.90
13472;DHT22;6808;49.444;11.034;2023-03-14T01:03:13;9.50;99.90
13472;DHT22;6808;49.444;11.034;2023-03-14T01:05:39;9.60;99.90
13472;DHT22;6808;49.444;11.034;2023-03-14T01:08:06;9.60;99.90
13472;DHT22;6808;49.444;11.034;2023-03-14T01:10:32;9.60;99.90
13472;DHT22;6808;49.444;11.034;2023-03-14T01:12:58;9.70;99.90
13472;DHT22;6808;49.444;11.034;2023-03-14T01:15:23;9.50;99.90
13472;DHT22;6808;49.444;11.034;2023-03-14T01:17:49;9.50;99.90
13472;DHT22;6808;49.444;11.034;2023-03-14T01:20:15;9.60;99.90
13472;DHT22;6808;49.444;11.034;2023-03-14T01:22:42;9.60;99.90
13472;DHT22;6808;49.444;11.034;2023-03-14T01:25:13;9.60;99.90
13472;DHT22;6808;49.444;11.034;2023-03-14T01:27:39;9.60;99.90
13472;DHT22;6808;49.444;11.034;2023-03-14T01:30:05;9.60;99.90
13472;DHT22;6808;49.444;11.034;2023-03-14T01:32:33;9.50;99.90
13472;DHT22;6808;49.444;11.034;2023-03-14T01:34:58;9.60;99.90
13472;DHT22;6808;49.444;11.034;2023-03-14T01:37:24;9.50;99.90
13472;DHT22;6808;49.444;11.034;2023-03-14T01:39:50;9.50;99.90
13472;DHT22;6808;49.444;11.034;2023-03-14T01:42:16;9.60;99.90
13472;DHT22;6808;49.444;11.034;2023-03-14T01:44:58;9.60;99.90
13472;DHT22;6808;49.444;11.034;2023-03-14T01:47:25;9.60;99.90
13472;DHT22;6808;49.444;11.034;2023-03-14T01:49:56;9.60;99.90
13472;DHT22;6808;49.444;11.034;2023-03-14T01:52:41;9.60;99.90
13472;DHT22;6808;49.444;11.034;2023-03-14T01:55:21;9.60;99.90
13472;DHT22;6808;49.444;11.034;2023-03-14T01:57:53;9.70;99.90
13472;DHT22;6808;49.444;11.034;2023-03-14T02:00:23;9.70;99.90
13472;DHT22;6808;49.444;11.034;2023-03-14T02:02:55;9.60;99.90
13472;DHT22;6808;49.444;11.034;2023-03-14T02:05:24;9.60;99.90
13472;DHT22;6808;49.444;11.034;2023-03-14T02:07:53;9.60;99.90
13472;DHT22;6808;49.444;11.034;2023-03-14T02:10:21;9.60;99.90
13472;DHT22;6808;49.444;11.034;2023-03-14T02:12:49;9.60;99.90
13472;DHT22;6808;49.444;11.034;2023-03-14T02:15:15;9.60;99.90
13472;DHT22;6808;49.444;11.034;2023-03-14T02:17:41;9.60;99.90
13472;DHT22;6808;49.444;11.034;2023-03-14T02:26:01;9.60;99.90
13472;DHT22;6808;49.444;11.034;2023-03-14T02:28:30;9.60;99.90
13472;DHT22;6808;49.444;11.034;2023-03-14T02:30:55;9.60;99.90
13472;DHT22;6808;49.444;11.034;2023-03-14T02:33:22;9.70;99.90
13472;DHT22;6808;49.444;11.034;2023-03-14T02:35:53;9.60;99.90
13472;DHT22;6808;49.444;11.034;2023-03-14T02:41:11;9.60;99.90
13472;DHT22;6808;49.444;11.034;2023-03-14T02:43:37;9.60;99.90
13472;DHT22;6808;49.444;11.034;2023-03-14T02:46:04;9.60;99.90
13472;DHT22;6808;49.444;11.034;2023-03-14T02:48:35;9.60;99.90
13472;DHT22;6808;49.444;11.034;2023-03-14T02:51:02;9.60;99.90
13472;DHT22;6808;49.444;11.034;2023-03-14T02:53:33;9.60;99.90
13472;DHT22;6808;49.444;11.034;2023-03-14T02:55:59;9.60;99.90
13472;DHT22;6808;49.444;11.034;2023-03-14T02:58:26;9.60;99.90
13472;DHT22;6808;49.444;11.034;2023-03-14T03:00:51;9.60;99.90
13472;DHT22;6808;49.444;11.034;2023-03-14T03:03:17;9.60;99.90
13472;DHT22;6808;49.444;11.034;2023-03-14T03:05:47;9.50;99.90
13472;DHT22;6808;49.444;11.034;2023-03-14T03:08:12;9.50;99.90
13472;DHT22;6808;49.444;11.034;2023-03-14T03:10:38;9.50;99.90
13472;DHT22;6808;49.444;11.034;2023-03-14T03:13:03;9.50;99.90
13472;DHT22;6808;49.444;11.034;2023-03-14T03:15:29;9.50;99.90
13472;DHT22;6808;49.444;11.034;2023-03-14T03:17:55;9.50;99.90
13472;DHT22;6808;49.444;11.034;2023-03-14T03:20:20;9.50;99.90
13472;DHT22;6808;49.444;11.034;2023-03-14T03:22:46;9.50;99.90
13472;DHT22;6808;49.444;11.034;2023-03-14T03:25:11;9.50;99.90
13472;DHT22;6808;49.444;11.034;2023-03-14T03:27:37;9.50;99.90
13472;DHT22;6808;49.444;11.034;2023-03-14T03:30:05;9.40;99.90
13472;DHT22;6808;49.444;11.034;2023-03-14T03:32:31;9.40;99.90
13472;DHT22;6808;49.444;11.034;2023-03-14T03:34:57;9.40;99.90
13472;DHT22;6808;49.444;11.034;2023-03-14T03:37:23;9.40;99.90
13472;DHT22;6808;49.444;11.034;2023-03-14T03:39:52;9.70;99.90
13472;DHT22;6808;49.444;11.034;2023-03-14T03:42:18;9.40;99.90
13472;DHT22;6808;49.444;11.034;2023-03-14T03:44:44;9.30;99.90
13472;DHT22;6808;49.444;11.034;2023-03-14T03:47:10;9.30;99.90
13472;DHT22;6808;49.444;11.034;2023-03-14T03:49:36;9.30;99.90
13472;DHT22;6808;49.444;11.034;2023-03-14T03:52:01;9.30;99.90
13472;DHT22;6808;49.444;11.034;2023-03-14T03:54:27;9.30;99.90
13472;DHT22;6808;49.444;11.034;2023-03-14T03:56:54;9.30;99.90
13472;DHT22;6808;49.444;11.034;2023-03-14T03:59:20;9.20;99.90
13472;DHT22;6808;49.444;11.034;2023-03-14T04:01:46;9.20;99.90
13472;DHT22;6808;49.444;11.034;2023-03-14T04:04:12;9.20;99.90
13472;DHT22;6808;49.444;11.034;2023-03-14T04:06:38;9.20;99.90
13472;DHT22;6808;49.444;11.034;2023-03-14T04:09:03;9.20;99.90
13472;DHT22;6808;49.444;11.034;2023-03-14T04:11:29;9.20;99.90
13472;DHT22;6808;49.444;11.034;2023-03-14T04:13:55;9.20;99.90
13472;DHT22;6808;49.444;11.034;2023-03-14T04:16:23;9.20;99.90
13472;DHT22;6808;49.444;11.034;2023-03-14T04:18:49;9.20;99.90
13472;DHT22;6808;49.444;11.034;2023-03-14T04:21:15;9.20;99.90
13472;DHT22;6808;49.444;11.034;2023-03-14T04:23:40;9.20;99.90
13472;DHT22;6808;49.444;11.034;2023-03-14T04:26:06;9.10;99.90
13472;DHT22;6808;49.444;11.034;2023-03-14T04:28:32;9.20;99.90
13472;DHT22;6808;49.444;11.034;2023-03-14T04:30:57;9.20;99.90
13472;DHT22;6808;49.444;11.034;2023-03-14T04:33:23;9.20;99.90
13472;DHT22;6808;49.444;11.034;2023-03-14T04:35:48;9.10;99.90
13472;DHT22;6808;49.444;11.034;2023-03-14T04:38:16;9.10;99.90
13472;DHT22;6808;49.444;11.034;2023-03-14T04:40:42;9.10;99.90
13472;DHT22;6808;49.444;11.034;2023-03-14T04:43:10;9.10;99.90
13472;DHT22;6808;49.444;11.034;2023-03-14T04:45:36;9.00;99.90
13472;DHT22;6808;49.444;11.034;2023-03-14T04:48:02;9.00;99.90
13472;DHT22;6808;49.444;11.034;2023-03-14T04:50:27;9.00;99.90
13472;DHT22;6808;49.444;11.034;2023-03-14T04:52:53;9.00;99.90
13472;DHT22;6808;49.444;11.034;2023-03-14T04:55:18;8.90;99.90
13472;DHT22;6808;49.444;11.034;2023-03-14T04:57:44;8.90;99.90
13472;DHT22;6808;49.444;11.034;2023-03-14T05:00:10;9.00;99.90
13472;DHT22;6808;49.444;11.034;2023-03-14T05:02:36;8.90;99.90
13472;DHT22;6808;49.444;11.034;2023-03-14T05:05:02;9.00;99.90
13472;DHT22;6808;49.444;11.034;2023-03-14T05:07:27;8.90;99.90
13472;DHT22;6808;49.444;11.034;2023-03-14T05:09:53;8.90;99.90
13472;DHT22;6808;49.444;11.034;2023-03-14T05:12:20;8.90;99.90
13472;DHT22;6808;49.444;11.034;2023-03-14T05:14:45;8.90;99.90
13472;DHT22;6808;49.444;11.034;2023-03-14T05:17:11;8.90;99.90
13472;DHT22;6808;49.444;11.034;2023-03-14T05:19:40;8.90;99.90
13472;DHT22;6808;49.444;11.034;2023-03-14T05:22:05;8.80;99.90
13472;DHT22;6808;49.444;11.034;2023-03-14T05:24:31;8.90;99.90
13472;DHT22;6808;49.444;11.034;2023-03-14T05:26:56;8.90;99.90
13472;DHT22;6808;49.444;11.034;2023-03-14T05:29:22;8.90;99.90
13472;DHT22;6808;49.444;11.034;2023-03-14T05:31:47;8.90;99.90
13472;DHT22;6808;49.444;11.034;2023-03-14T05:34:13;8.90;99.90
13472;DHT22;6808;49.444;11.034;2023-03-14T05:36:39;8.80;99.90
13472;DHT22;6808;49.444;11.034;2023-03-14T05:39:04;8.80;99.90
13472;DHT22;6808;49.444;11.034;2023-03-14T05:41:30;8.70;99.90
13472;DHT22;6808;49.444;11.034;2023-03-14T05:43:56;8.80;99.90
13472;DHT22;6808;49.444;11.034;2023-03-14T05:46:21;8.80;99.90
13472;DHT22;6808;49.444;11.034;2023-03-14T05:48:47;8.80;99.90
13472;DHT22;6808;49.444;11.034;2023-03-14T05:51:12;8.80;99.90
13472;DHT22;6808;49.444;11.034;2023-03-14T05:53:38;8.80;99.90
13472;DHT22;6808;49.444;11.034;2023-03-14T05:56:04;8.70;99.90
13472;DHT22;6808;49.444;11.034;2023-03-14T05:58:29;8.70;99.90
13472;DHT22;6808;49.444;11.034;2023-03-14T06:00:55;8.80;99.90
13472;DHT22;6808;49.444;11.034;2023-03-14T06:03:20;8.80;99.90
13472;DHT22;6808;49.444;11.034;2023-03-14T06:05:51;8.70;99.90
13472;DHT22;6808;49.444;11.034;2023-03-14T06:08:17;8.70;99.90
13472;DHT22;6808;49.444;11.034;2023-03-14T06:10:43;8.70;99.90
13472;DHT22;6808;49.444;11.034;2023-03-14T06:13:09;8.70;99.90
13472;DHT22;6808;49.444;11.034;2023-03-14T06:15:34;8.70;99.90
13472;DHT22;6808;49.444;11.034;2023-03-14T06:18:01;8.80;99.90
13472;DHT22;6808;49.444;11.034;2023-03-14T06:20:26;8.80;99.90
13472;DHT22;6808;49.444;11.034;2023-03-14T06:22:52;8.80;99.90
13472;DHT22;6808;49.444;11.034;2023-03-14T06:25:17;8.80;99.90
13472;DHT22;6808;49.444;11.034;2023-03-14T06:27:43;8.80;99.90
13472;DHT22;6808;49.444;11.034;2023-03-14T06:30:10;8.70;99.90
13472;DHT22;6808;49.444;11.034;2023-03-14T06:32:36;8.70;99.90
13472;DHT22;6808;49.444;11.034;2023-03-14T06:35:01;8.70;99.90
13472;DHT22;6808;49.444;11.034;2023-03-14T06:37:28;8.70;99.90
13472;DHT22;6808;49.444;11.034;2023-03-14T06:39:54;8.70;99.90
13472;DHT22;6808;49.444;11.034;2023-03-14T06:42:20;8.80;99.90
13472;DHT22;6808;49.444;11.034;2023-03-14T06:44:45;8.80;99.90
13472;DHT22;6808;49.444;11.034;2023-03-14T06:47:12;8.70;99.90
13472;DHT22;6808;49.444;11.034;2023-03-14T06:49:37;8.70;99.90
13472;DHT22;6808;49.444;11.034;2023-03-14T06:52:03;8.70;99.90
13472;DHT22;6808;49.444;11.034;2023-03-14T06:54:28;8.70;99.90
13472;DHT22;6808;49.444;11.034;2023-03-14T06:56:54;8.80;99.90
13472;DHT22;6808;49.444;11.034;2023-03-14T06:59:20;8.80;99.90
13472;DHT22;6808;49.444;11.034;2023-03-14T07:01:45;8.80;99.90
13472;DHT22;6808;49.444;11.034;2023-03-14T07:04:11;8.80;99.90
13472;DHT22;6808;49.444;11.034;2023-03-14T07:06:36;8.80;99.90
13472;DHT22;6808;49.444;11.034;2023-03-14T07:09:02;8.90;99.90
13472;DHT22;6808;49.444;11.034;2023-03-14T07:11:28;8.90;99.90
13472;DHT22;6808;49.444;11.034;2023-03-14T07:13:53;8.50;99.90
13472;DHT22;6808;49.444;11.034;2023-03-14T07:16:19;9.00;99.90
13472;DHT22;6808;49.444;11.034;2023-03-14T07:18:45;9.00;99.90
13472;DHT22;6808;49.444;11.034;2023-03-14T07:21:11;9.10;99.90
13472;DHT22;6808;49.444;11.034;2023-03-14T07:23:38;9.10;99.90
13472;DHT22;6808;49.444;11.034;2023-03-14T07:26:04;9.10;99.90
13472;DHT22;6808;49.444;11.034;2023-03-14T07:28:30;9.10;99.90
13472;DHT22;6808;49.444;11.034;2023-03-14T07:30:56;9.10;99.90
13472;DHT22;6808;49.444;11.034;2023-03-14T07:33:21;9.10;99.90
13472;DHT22;6808;49.444;11.034;2023-03-14T07:35:48;9.10;99.90
13472;DHT22;6808;49.444;11.034;2023-03-14T07:38:14;9.10;99.90
13472;DHT22;6808;49.444;11.034;2023-03-14T07:40:39;9.20;99.90
13472;DHT22;6808;49.444;11.034;2023-03-14T07:43:05;9.20;99.90
13472;DHT22;6808;49.444;11.034;2023-03-14T07:45:31;9.20;99.90
13472;DHT22;6808;49.444;11.034;2023-03-14T07:47:56;9.30;99.90
13472;DHT22;6808;49.444;11.034;2023-03-14T07:50:26;9.30;99.90
13472;DHT22;6808;49.444;11.034;2023-03-14T07:52:51;9.30;99.90
13472;DHT22;6808;49.444;11.034;2023-03-14T07:55:17;9.30;99.90
13472;DHT22;6808;49.444;11.034;2023-03-14T07:57:43;9.40;99.90
13472;DHT22;6808;49.444;11.034;2023-03-14T08:00:09;9.40;99.90
13472;DHT22;6808;49.444;11.034;2023-03-14T08:02:35;9.40;99.90
13472;DHT22;6808;49.444;11.034;2023-03-14T08:05:02;9.50;99.90
13472;DHT22;6808;49.444;11.034;2023-03-14T08:07:27;9.50;99.90
13472;DHT22;6808;49.444;11.034;2023-03-14T08:09:53;9.50;99.90
13472;DHT22;6808;49.444;11.034;2023-03-14T08:12:19;9.60;99.90
13472;DHT22;6808;49.444;11.034;2023-03-14T08:14:44;9.60;99.90
13472;DHT22;6808;49.444;11.034;2023-03-14T08:17:10;9.70;99.90
13472;DHT22;6808;49.444;11.034;2023-03-14T08:19:35;9.80;99.90
13472;DHT22;6808;49.444;11.034;2023-03-14T08:22:01;9.80;99.90
13472;DHT22;6808;49.444;11.034;2023-03-14T08:24:26;9.90;99.90
13472;DHT22;6808;49.444;11.034;2023-03-14T08:26:52;10.00;99.90
13472;DHT22;6808;49.444;11.034;2023-03-14T08:29:17;10.00;99.90
13472;DHT22;6808;49.444;11.034;2023-03-14T08:31:43;10.10;99.90
13472;DHT22;6808;49.444;11.034;2023-03-14T08:34:09;10.10;99.90
13472;DHT22;6808;49.444;11.034;2023-03-14T08:36:35;10.20;99.90
13472;DHT22;6808;49.444;11.034;2023-03-14T08:39:01;10.20;99.90
13472;DHT22;6808;49.444;11.034;2023-03-14T08:41:26;10.20;99.90
13472;DHT22;6808;49.444;11.034;2023-03-14T08:43:52;10.30;99.90
13472;DHT22;6808;49.444;11.034;2023-03-14T08:46:18;10.30;99.90
13472;DHT22;6808;49.444;11.034;2023-03-14T08:48:43;10.40;99.90
13472;DHT22;6808;49.444;11.034;2023-03-14T08:51:12;10.40;99.90
13472;DHT22;6808;49.444;11.034;2023-03-14T08:53:39;10.50;99.90
13472;DHT22;6808;49.444;11.034;2023-03-14T08:56:05;10.60;99.90
13472;DHT22;6808;49.444;11.034;2023-03-14T08:58:34;10.60;99.90
13472;DHT22;6808;49.444;11.034;2023-03-14T09:01:02;10.70;99.90
13472;DHT22;6808;49.444;11.034;2023-03-14T09:03:27;10.70;99.90
13472;DHT22;6808;49.444;11.034;2023-03-14T09:05:53;10.70;99.90
13472;DHT22;6808;49.444;11.034;2023-03-14T09:08:19;10.80;99.90
13472;DHT22;6808;49.444;11.034;2023-03-14T09:10:45;10.80;99.90
13472;DHT22;6808;49.444;11.034;2023-03-14T09:13:10;10.90;99.90
13472;DHT22;6808;49.444;11.034;2023-03-14T09:15:36;10.90;99.90
13472;DHT22;6808;49.444;11.034;2023-03-14T09:18:01;10.90;99.90
13472;DHT22;6808;49.444;11.034;2023-03-14T09:20:28;10.90;99.90
13472;DHT22;6808;49.444;11.034;2023-03-14T09:22:53;11.00;99.90
13472;DHT22;6808;49.444;11.034;2023-03-14T09:25:19;11.00;99.90
13472;DHT22;6808;49.444;11.034;2023-03-14T09:27:44;11.10;99.90
13472;DHT22;6808;49.444;11.034;2023-03-14T09:30:10;11.10;99.90
13472;DHT22;6808;49.444;11.034;2023-03-14T09:32:36;11.20;99.90
13472;DHT22;6808;49.444;11.034;2023-03-14T09:35:02;11.30;99.90
13472;DHT22;6808;49.444;11.034;2023-03-14T09:37:27;11.40;99.90
13472;DHT22;6808;49.444;11.034;2023-03-14T09:39:53;11.50;99.90
13472;DHT22;6808;49.444;11.034;2023-03-14T09:42:22;11.60;99.90
13472;DHT22;6808;49.444;11.034;2023-03-14T09:45:01;11.50;99.90
13472;DHT22;6808;49.444;11.034;2023-03-14T09:47:28;11.50;99.90
13472;DHT22;6808;49.444;11.034;2023-03-14T09:49:54;11.50;99.90
13472;DHT22;6808;49.444;11.034;2023-03-14T09:52:35;11.50;99.90
13472;DHT22;6808;49.444;11.034;2023-03-14T09:55:04;11.50;99.90
13472;DHT22;6808;49.444;11.034;2023-03-14T09:57:33;11.50;99.90
13472;DHT22;6808;49.444;11.034;2023-03-14T10:00:26;11.50;99.90
13472;DHT22;6808;49.444;11.034;2023-03-14T10:02:56;11.50;99.90
13472;DHT22;6808;49.444;11.034;2023-03-14T10:05:24;11.50;99.90
13472;DHT22;6808;49.444;11.034;2023-03-14T10:07:50;11.50;99.90
13472;DHT22;6808;49.444;11.034;2023-03-14T10:10:17;11.50;99.90
13472;DHT22;6808;49.444;11.034;2023-03-14T10:12:54;12.70;99.90
13472;DHT22;6808;49.444;11.034;2023-03-14T10:15:30;11.40;99.90
13472;DHT22;6808;49.444;11.034;2023-03-14T10:17:59;11.40;99.90
13472;DHT22;6808;49.444;11.034;2023-03-14T10:20:36;11.40;99.90
13472;DHT22;6808;49.444;11.034;2023-03-14T10:25:39;11.50;99.90
13472;DHT22;6808;49.444;11.034;2023-03-14T10:28:22;11.50;99.90
13472;DHT22;6808;49.444;11.034;2023-03-14T10:30:48;11.60;99.90
13472;DHT22;6808;49.444;11.034;2023-03-14T10:33:21;11.60;99.90
13472;DHT22;6808;49.444;11.034;2023-03-14T10:35:57;11.70;99.90
13472;DHT22;6808;49.444;11.034;2023-03-14T10:38:27;11.70;99.90
13472;DHT22;6808;49.444;11.034;2023-03-14T10:40:53;11.80;99.90
13472;DHT22;6808;49.444;11.034;2023-03-14T10:43:24;11.90;99.90
13472;DHT22;6808;49.444;11.034;2023-03-14T10:45:56;12.00;99.90
13472;DHT22;6808;49.444;11.034;2023-03-14T10:48:35;12.00;99.90
13472;DHT22;6808;49.444;11.034;2023-03-14T10:53:59;11.90;99.90
13472;DHT22;6808;49.444;11.034;2023-03-14T10:56:26;11.90;99.90
13472;DHT22;6808;49.444;11.034;2023-03-14T10:58:58;11.80;99.80
13472;DHT22;6808;49.444;11.034;2023-03-14T11:01:37;11.80;99.90
13472;DHT22;6808;49.444;11.034;2023-03-14T11:07:19;11.70;99.90
13472;DHT22;6808;49.444;11.034;2023-03-14T11:10:08;11.70;99.90
13472;DHT22;6808;49.444;11.034;2023-03-14T11:15:52;11.60;99.90
13472;DHT22;6808;49.444;11.034;2023-03-14T11:29:30;11.40;99.90
13472;DHT22;6808;49.444;11.034;2023-03-14T11:32:02;11.40;99.90
13472;DHT22;6808;49.444;11.034;2023-03-14T11:34:38;11.30;99.90
13472;DHT22;6808;49.444;11.034;2023-03-14T11:37:11;11.30;99.90
13472;DHT22;6808;49.444;11.034;2023-03-14T11:39:43;11.50;99.90
13472;DHT22;6808;49.444;11.034;2023-03-14T11:42:16;11.90;99.90
13472;DHT22;6808;49.444;11.034;2023-03-14T11:44:47;12.20;99.90
13472;DHT22;6808;49.444;11.034;2023-03-14T11:47:26;12.40;99.90
13472;DHT22;6808;49.444;11.034;2023-03-14T11:50:18;12.70;99.90
13472;DHT22;6808;49.444;11.034;2023-03-14T11:52:58;12.80;99.90
13472;DHT22;6808;49.444;11.034;2023-03-14T11:55:35;12.90;99.90
13472;DHT22;6808;49.444;11.034;2023-03-14T11:58:12;12.90;99.90
13472;DHT22;6808;49.444;11.034;2023-03-14T12:00:40;12.80;99.90
13472;DHT22;6808;49.444;11.034;2023-03-14T12:08:58;12.60;99.90
13472;DHT22;6808;49.444;11.034;2023-03-14T12:14:28;12.90;99.90
13472;DHT22;6808;49.444;11.034;2023-03-14T12:16:58;13.20;99.90
13472;DHT22;6808;49.444;11.034;2023-03-14T12:19:27;13.80;99.90
13472;DHT22;6808;49.444;11.034;2023-03-14T12:24:49;13.70;98.50
13472;DHT22;6808;49.444;11.034;2023-03-14T12:27:45;13.60;98.40
13472;DHT22;6808;49.444;11.034;2023-03-14T12:30:36;13.50;97.90
13472;DHT22;6808;49.444;11.034;2023-03-14T12:36:18;13.30;97.00
13472;DHT22;6808;49.444;11.034;2023-03-14T12:42:11;13.30;97.50
13472;DHT22;6808;49.444;11.034;2023-03-14T12:44:45;13.40;97.40
13472;DHT22;6808;49.444;11.034;2023-03-14T12:49:50;13.30;96.40
13472;DHT22;6808;49.444;11.034;2023-03-14T12:52:33;13.20;96.90
13472;DHT22;6808;49.444;11.034;2023-03-14T12:55:12;13.20;96.90
13472;DHT22;6808;49.444;11.034;2023-03-14T12:58:04;13.10;96.60
13472;DHT22;6808;49.444;11.034;2023-03-14T13:00:38;13.10;98.30
13472;DHT22;6808;49.444;11.034;2023-03-14T13:03:18;12.70;99.90
13472;DHT22;6808;49.444;11.034;2023-03-14T13:06:01;12.30;99.90
13472;DHT22;6808;49.444;11.034;2023-03-14T13:08:44;12.10;99.90
13472;DHT22;6808;49.444;11.034;2023-03-14T13:11:20;11.90;99.90
13472;DHT22;6808;49.444;11.034;2023-03-14T13:13:49;11.80;99.90
13472;DHT22;6808;49.444;11.034;2023-03-14T13:16:19;11.70;99.90
13472;DHT22;6808;49.444;11.034;2023-03-14T13:18:59;11.60;99.90
13472;DHT22;6808;49.444;11.034;2023-03-14T13:21:27;11.70;99.90
13472;DHT22;6808;49.444;11.034;2023-03-14T13:24:02;11.60;99.90
13472;DHT22;6808;49.444;11.034;2023-03-14T13:26:39;11.40;99.90
13472;DHT22;6808;49.444;11.034;2023-03-14T13:31:36;11.30;99.90
13472;DHT22;6808;49.444;11.034;2023-03-14T13:34:06;11.20;99.90
13472;DHT22;6808;49.444;11.034;2023-03-14T13:36:33;11.20;99.90
13472;DHT22;6808;49.444;11.034;2023-03-14T13:39:00;11.10;99.90
13472;DHT22;6808;49.444;11.034;2023-03-14T13:41:27;11.00;99.90
13472;DHT22;6808;49.444;11.034;2023-03-14T13:44:08;10.90;99.90
13472;DHT22;6808;49.444;11.034;2023-03-14T13:46:38;10.90;99.90
13472;DHT22;6808;49.444;11.034;2023-03-14T13:49:06;10.90;99.90
13472;DHT22;6808;49.444;11.034;2023-03-14T13:51:34;10.70;99.90
13472;DHT22;6808;49.444;11.034;2023-03-14T13:54:13;10.70;99.90
13472;DHT22;6808;49.444;11.034;2023-03-14T13:56:40;11.20;99.90
13472;DHT22;6808;49.444;11.034;2023-03-14T13:59:22;10.50;99.90
13472;DHT22;6808;49.444;11.034;2023-03-14T14:01:49;10.40;99.90
13472;DHT22;6808;49.444;11.034;2023-03-14T14:04:18;10.40;99.90
13472;DHT22;6808;49.444;11.034;2023-03-14T14:06:47;10.50;99.90
13472;DHT22;6808;49.444;11.034;2023-03-14T14:09:37;10.50;99.90
13472;DHT22;6808;49.444;11.034;2023-03-14T14:12:06;11.10;99.90
13472;DHT22;6808;49.444;11.034;2023-03-14T14:14:46;10.20;99.90
13472;DHT22;6808;49.444;11.034;2023-03-14T14:17:18;10.10;99.90
13472;DHT22;6808;49.444;11.034;2023-03-14T14:19:46;10.10;99.90
13472;DHT22;6808;49.444;11.034;2023-03-14T14:22:12;10.00;99.90
13472;DHT22;6808;49.444;11.034;2023-03-14T14:24:38;10.00;99.90
13472;DHT22;6808;49.444;11.034;2023-03-14T14:27:19;10.60;99.90
13472;DHT22;6808;49.444;11.034;2023-03-14T14:30:05;9.80;99.90
13472;DHT22;6808;49.444;11.034;2023-03-14T14:32:36;9.80;99.90
13472;DHT22;6808;49.444;11.034;2023-03-14T14:35:04;9.60;99.90
13472;DHT22;6808;49.444;11.034;2023-03-14T14:37:34;9.50;99.90
13472;DHT22;6808;49.444;11.034;2023-03-14T14:40:08;9.40;99.90
13472;DHT22;6808;49.444;11.034;2023-03-14T14:42:39;9.40;99.90
13472;DHT22;6808;49.444;11.034;2023-03-14T14:45:11;9.50;99.90
13472;DHT22;6808;49.444;11.034;2023-03-14T14:50:30;9.30;99.90
13472;DHT22;6808;49.444;11.034;2023-03-14T14:52:58;9.20;99.90
13472;DHT22;6808;49.444;11.034;2023-03-14T14:55:31;9.20;99.90
13472;DHT22;6808;49.444;11.034;2023-03-14T14:57:57;9.10;99.90
13472;DHT22;6808;49.444;11.034;2023-03-14T15:00:39;9.00;99.90
13472;DHT22;6808;49.444;11.034;2023-03-14T15:03:12;8.90;99.90
13472;DHT22;6808;49.444;11.034;2023-03-14T15:05:43;8.70;99.90
13472;DHT22;6808;49.444;11.034;2023-03-14T15:08:10;8.60;99.90
13472;DHT22;6808;49.444;11.034;2023-03-14T15:10:37;8.50;99.90
13472;DHT22;6808;49.444;11.034;2023-03-14T15:13:03;8.30;99.90
13472;DHT22;6808;49.444;11.034;2023-03-14T15:15:29;8.20;99.90
13472;DHT22;6808;49.444;11.034;2023-03-14T15:17:54;8.10;99.90
13472;DHT22;6808;49.444;11.034;2023-03-14T15:20:20;8.00;99.90
13472;DHT22;6808;49.444;11.034;2023-03-14T15:22:49;7.90;99.90
13472;DHT22;6808;49.444;11.034;2023-03-14T15:25:27;7.90;99.90
13472;DHT22;6808;49.444;11.034;2023-03-14T15:27:53;7.80;99.90
13472;DHT22;6808;49.444;11.034;2023-03-14T15:30:20;7.70;99.90
13472;DHT22;6808;49.444;11.034;2023-03-14T15:32:45;7.70;99.90
13472;DHT22;6808;49.444;11.034;2023-03-14T15:35:11;7.70;99.90
13472;DHT22;6808;49.444;11.034;2023-03-14T15:37:36;7.70;99.90
13472;DHT22;6808;49.444;11.034;2023-03-14T15:40:04;7.80;99.90
13472;DHT22;6808;49.444;11.034;2023-03-14T15:42:38;7.80;99.90
13472;DHT22;6808;49.444;11.034;2023-03-14T15:45:05;7.80;99.90
13472;DHT22;6808;49.444;11.034;2023-03-14T15:47:33;7.80;99.90
13472;DHT22;6808;49.444;11.034;2023-03-14T15:50:01;7.80;99.90
13472;DHT22;6808;49.444;11.034;2023-03-14T15:52:26;7.80;99.90
13472;DHT22;6808;49.444;11.034;2023-03-14T15:54:54;7.80;99.90
13472;DHT22;6808;49.444;11.034;2023-03-14T15:57:19;7.80;99.90
13472;DHT22;6808;49.444;11.034;2023-03-14T15:59:45;7.90;99.90
13472;DHT22;6808;49.444;11.034;2023-03-14T16:02:10;7.90;99.90
13472;DHT22;6808;49.444;11.034;2023-03-14T16:04:37;7.90;99.90
13472;DHT22;6808;49.444;11.034;2023-03-14T16:07:03;7.90;99.90
13472;DHT22;6808;49.444;11.034;2023-03-14T16:09:29;7.90;99.90
13472;DHT22;6808;49.444;11.034;2023-03-14T16:11:55;7.90;99.90
13472;DHT22;6808;49.444;11.034;2023-03-14T16:14:20;7.90;99.90
13472;DHT22;6808;49.444;11.034;2023-03-14T16:16:48;8.00;99.90
13472;DHT22;6808;49.444;11.034;2023-03-14T16:19:14;8.00;99.90
13472;DHT22;6808;49.444;11.034;2023-03-14T16:21:40;8.00;99.90
13472;DHT22;6808;49.444;11.034;2023-03-14T16:24:07;8.00;99.90
13472;DHT22;6808;49.444;11.034;2023-03-14T16:26:33;7.90;99.90
13472;DHT22;6808;49.444;11.034;2023-03-14T16:29:01;7.90;99.90
13472;DHT22;6808;49.444;11.034;2023-03-14T16:31:26;7.90;99.80
13472;DHT22;6808;49.444;11.034;2023-03-14T16:33:52;7.90;99.60
13472;DHT22;6808;49.444;11.034;2023-03-14T16:36:17;7.90;99.60
13472;DHT22;6808;49.444;11.034;2023-03-14T16:38:44;7.80;99.90
13472;DHT22;6808;49.444;11.034;2023-03-14T16:41:18;7.80;99.90
13472;DHT22;6808;49.444;11.034;2023-03-14T16:43:44;7.80;99.40
13472;DHT22;6808;49.444;11.034;2023-03-14T16:46:15;7.70;99.80